Time;durP1;ratioP1;P1;durP2;ratioP2;P2;SDS_P1;SDS_P2;PMS_P1;PMS_P2;Temp;Humidity;BMP_temperature;BMP_pressure;BME280_temperature;BME280_humidity;BME280_pressure;Samples;Min_cycle;Max_cycle;Signal;HPM_P1;HPM_P2
2023/05/07 00:00:26;;;;;;;9.20;7.32;;;;;;;;;;5085550;28;20052;-60
2023/05/07 00:02:52;;;;;;;8.05;7.20;;;;;;;;;;5084121;28;20141;-60
2023/05/07 00:05:19;;;;;;;10.90;7.38;;;;;;;;;;5071035;28;20059;-59
2023/05/07 00:07:46;;;;;;;9.07;7.25;;;;;;;;;;5084100;28;20151;-60
2023/05/07 00:10:12;;;;;;;9.55;6.68;;;;;;;;;;5083005;28;20057;-60
2023/05/07 00:12:40;;;;;;;8.13;6.72;;;;;;;;;;5082608;28;20495;-61
2023/05/07 00:15:07;;;;;;;8.85;6.78;;;;;;;;;;5084384;28;20185;-60
2023/05/07 00:17:33;;;;;;;7.18;6.47;;;;;;;;;;5082949;28;20044;-60
2023/05/07 00:20:00;;;;;;;9.38;6.53;;;;;;;;;;5083340;28;20056;-61
2023/05/07 00:22:26;;;;;;;9.85;7.05;;;;;;;;;;5070755;28;20058;-60
2023/05/07 00:24:53;;;;;;;9.05;6.93;;;;;;;;;;5066654;28;20491;-59
2023/05/07 00:27:19;;;;;;;7.32;6.63;;;;;;;;;;5073512;28;20078;-60
2023/05/07 00:29:45;;;;;;;8.93;6.65;;;;;;;;;;5074209;28;20048;-60
2023/05/07 00:32:12;;;;;;;8.02;6.60;;;;;;;;;;5083121;28;20495;-59
2023/05/07 00:34:39;;;;;;;8.88;6.43;;;;;;;;;;5082764;28;20525;-60
2023/05/07 00:37:07;;;;;;;9.90;6.88;;;;;;;;;;5071929;28;20598;-60
2023/05/07 00:39:33;;;;;;;9.43;7.00;;;;;;;;;;5084568;28;20056;-60
2023/05/07 00:42:00;;;;;;;8.32;6.93;;;;;;;;;;5083625;28;20110;-60
2023/05/07 00:44:28;;;;;;;9.00;6.72;;;;;;;;;;5083877;28;20063;-60
2023/05/07 00:46:56;;;;;;;7.55;6.20;;;;;;;;;;5083267;28;20048;-60
2023/05/07 00:49:26;;;;;;;7.28;6.55;;;;;;;;;;5089617;28;20056;-60
2023/05/07 00:51:52;;;;;;;8.35;7.15;;;;;;;;;;5082730;28;20531;-61
2023/05/07 00:54:19;;;;;;;7.20;6.50;;;;;;;;;;5083837;28;20490;-61
2023/05/07 00:56:45;;;;;;;8.15;7.43;;;;;;;;;;5082797;28;20049;-61
2023/05/07 00:59:11;;;;;;;8.27;7.22;;;;;;;;;;5083968;28;20068;-59
2023/05/07 01:01:38;;;;;;;8.00;7.20;;;;;;;;;;5081920;28;20141;-60
2023/05/07 01:04:05;;;;;;;7.03;6.22;;;;;;;;;;5082665;28;20152;-61
2023/05/07 01:06:31;;;;;;;8.57;7.40;;;;;;;;;;5082658;28;20049;-60
2023/05/07 01:08:59;;;;;;;9.85;6.82;;;;;;;;;;5083419;28;20542;-59
2023/05/07 01:11:25;;;;;;;8.13;7.32;;;;;;;;;;5083882;28;20449;-60
2023/05/07 01:13:52;;;;;;;8.45;7.25;;;;;;;;;;5081389;28;20056;-61
2023/05/07 01:16:18;;;;;;;9.57;7.05;;;;;;;;;;5080831;28;20052;-59
2023/05/07 01:18:47;;;;;;;8.00;7.20;;;;;;;;;;5081164;28;20168;-59
2023/05/07 01:21:15;;;;;;;8.23;7.30;;;;;;;;;;5082598;28;20494;-60
2023/05/07 01:23:42;;;;;;;8.75;7.70;;;;;;;;;;5083783;28;20512;-58
2023/05/07 01:26:08;;;;;;;8.15;6.90;;;;;;;;;;5082873;28;20057;-59
2023/05/07 01:28:34;;;;;;;8.00;7.18;;;;;;;;;;5073228;28;20056;-60
2023/05/07 01:31:03;;;;;;;9.23;7.75;;;;;;;;;;5082177;28;20091;-60
2023/05/07 01:33:31;;;;;;;8.20;6.70;;;;;;;;;;5082993;28;20056;-57
2023/05/07 01:36:00;;;;;;;11.48;7.40;;;;;;;;;;5082432;28;20052;-59
2023/05/07 01:38:27;;;;;;;9.90;6.80;;;;;;;;;;5083072;28;20059;-59
2023/05/07 01:40:53;;;;;;;7.88;7.05;;;;;;;;;;5081781;28;20055;-62
2023/05/07 01:43:20;;;;;;;7.82;6.93;;;;;;;;;;5080023;28;20083;-59
2023/05/07 01:45:47;;;;;;;7.68;6.97;;;;;;;;;;5082700;28;20056;-58
2023/05/07 01:48:14;;;;;;;8.55;7.75;;;;;;;;;;5082921;28;20056;-61
2023/05/07 01:50:41;;;;;;;8.25;7.45;;;;;;;;;;5082749;28;20194;-60
2023/05/07 01:53:07;;;;;;;9.30;7.78;;;;;;;;;;5081738;28;20529;-61
2023/05/07 01:55:34;;;;;;;10.20;8.10;;;;;;;;;;5081824;28;20053;-60
2023/05/07 01:58:00;;;;;;;8.82;7.93;;;;;;;;;;5081685;28;20058;-58
2023/05/07 02:00:27;;;;;;;8.93;7.00;;;;;;;;;;5080620;28;20144;-61
2023/05/07 02:02:54;;;;;;;8.00;7.20;;;;;;;;;;5082715;28;20080;-61
2023/05/07 02:05:21;;;;;;;9.68;7.93;;;;;;;;;;5080775;28;20056;-60
2023/05/07 02:07:47;;;;;;;8.70;7.80;;;;;;;;;;5081668;28;20055;-62
2023/05/07 02:10:13;;;;;;;9.55;7.78;;;;;;;;;;5083155;28;20144;-61
2023/05/07 02:12:40;;;;;;;9.35;8.30;;;;;;;;;;5080954;28;20529;-60
2023/05/07 02:15:07;;;;;;;9.35;8.40;;;;;;;;;;5082347;28;20059;-61
2023/05/07 02:17:33;;;;;;;9.43;8.50;;;;;;;;;;5080951;28;20573;-62
2023/05/07 02:20:00;;;;;;;11.38;8.57;;;;;;;;;;5082737;28;20056;-61
2023/05/07 02:22:26;;;;;;;12.43;9.30;;;;;;;;;;5077273;28;20044;-58
2023/05/07 02:24:52;;;;;;;9.40;8.00;;;;;;;;;;5081627;28;20049;-61
2023/05/07 02:27:19;;;;;;;10.48;8.23;;;;;;;;;;5082612;28;20155;-61
2023/05/07 02:29:45;;;;;;;9.82;8.45;;;;;;;;;;5080263;28;20586;-60
2023/05/07 02:32:12;;;;;;;10.13;8.85;;;;;;;;;;5081082;28;20052;-61
2023/05/07 02:34:38;;;;;;;9.40;8.50;;;;;;;;;;5082584;28;20055;-61
2023/05/07 02:37:05;;;;;;;9.30;8.40;;;;;;;;;;5081661;28;20052;-60
2023/05/07 02:39:31;;;;;;;9.68;8.07;;;;;;;;;;5081899;28;20147;-59
2023/05/07 02:41:57;;;;;;;11.35;9.30;;;;;;;;;;5081879;28;20515;-61
2023/05/07 02:44:24;;;;;;;11.25;8.80;;;;;;;;;;5083493;28;20057;-60
2023/05/07 02:46:50;;;;;;;9.50;8.48;;;;;;;;;;5073849;28;20049;-60
2023/05/07 02:49:16;;;;;;;10.32;9.27;;;;;;;;;;5080022;28;20145;-61
2023/05/07 02:51:43;;;;;;;10.82;8.48;;;;;;;;;;5079747;28;20049;-59
2023/05/07 02:54:09;;;;;;;10.65;9.55;;;;;;;;;;5081334;28;20535;-61
2023/05/07 02:56:35;;;;;;;13.77;9.40;;;;;;;;;;5081093;28;20498;-61
2023/05/07 02:59:02;;;;;;;11.95;9.85;;;;;;;;;;5081645;28;20533;-59
2023/05/07 03:01:29;;;;;;;11.77;10.43;;;;;;;;;;5080813;28;20080;-60
2023/05/07 03:03:56;;;;;;;11.57;10.05;;;;;;;;;;5080890;28;20052;-61
2023/05/07 03:06:22;;;;;;;12.20;10.18;;;;;;;;;;5085293;28;20064;-61
2023/05/07 03:08:48;;;;;;;15.10;10.65;;;;;;;;;;5081037;28;20147;-60
2023/05/07 03:11:15;;;;;;;10.95;9.85;;;;;;;;;;5080804;28;20080;-60
2023/05/07 03:13:41;;;;;;;11.70;10.35;;;;;;;;;;5081504;28;20569;-61
2023/05/07 03:16:07;;;;;;;10.75;9.65;;;;;;;;;;5082160;28;20507;-61
2023/05/07 03:18:34;;;;;;;13.07;9.50;;;;;;;;;;5081168;28;20084;-60
2023/05/07 03:21:01;;;;;;;13.82;10.60;;;;;;;;;;5082133;28;20489;-60
2023/05/07 03:23:27;;;;;;;14.52;10.10;;;;;;;;;;5081259;28;20494;-56
2023/05/07 03:25:54;;;;;;;16.15;10.00;;;;;;;;;;5070856;28;20103;-60
2023/05/07 03:28:20;;;;;;;12.00;10.00;;;;;;;;;;5080995;28;20057;-58
2023/05/07 03:30:47;;;;;;;12.95;9.95;;;;;;;;;;5080462;28;20053;-61
2023/05/07 03:33:13;;;;;;;11.77;9.98;;;;;;;;;;5080090;28;20474;-61
2023/05/07 03:35:39;;;;;;;11.45;10.02;;;;;;;;;;5080835;28;20068;-61
2023/05/07 03:38:06;;;;;;;11.50;9.75;;;;;;;;;;5079554;28;20091;-61
2023/05/07 03:40:32;;;;;;;11.18;9.60;;;;;;;;;;5079924;28;20712;-61
2023/05/07 03:42:59;;;;;;;11.38;10.13;;;;;;;;;;5083625;28;20061;-60
2023/05/07 03:45:26;;;;;;;11.00;9.90;;;;;;;;;;5085329;28;20052;-58
2023/05/07 03:47:52;;;;;;;11.57;9.75;;;;;;;;;;5084380;28;20056;-60
2023/05/07 03:50:19;;;;;;;13.73;10.63;;;;;;;;;;5083596;28;20710;-60
2023/05/07 03:52:45;;;;;;;12.35;10.68;;;;;;;;;;5083970;28;20057;-58
2023/05/07 03:55:12;;;;;;;13.10;10.57;;;;;;;;;;5084760;28;20964;-60
2023/05/07 03:57:38;;;;;;;11.88;10.13;;;;;;;;;;5084116;28;20063;-60
2023/05/07 04:00:06;;;;;;;11.70;10.35;;;;;;;;;;5083577;28;20049;-60
2023/05/07 04:02:33;;;;;;;12.85;10.20;;;;;;;;;;5082762;28;20053;-60
2023/05/07 04:05:00;;;;;;;14.30;10.50;;;;;;;;;;5083646;27;20526;-61
2023/05/07 04:07:26;;;;;;;11.73;10.35;;;;;;;;;;5084741;28;20052;-61
2023/05/07 04:09:52;;;;;;;14.30;11.27;;;;;;;;;;5082906;28;20764;-60
2023/05/07 04:12:19;;;;;;;13.48;10.73;;;;;;;;;;5067330;28;20505;-60
2023/05/07 04:14:45;;;;;;;15.20;12.20;;;;;;;;;;5084747;28;20139;-60
2023/05/07 04:17:11;;;;;;;15.48;11.20;;;;;;;;;;5083679;28;20510;-58
2023/05/07 04:19:38;;;;;;;13.30;11.90;;;;;;;;;;5083965;28;20503;-59
2023/05/07 04:22:04;;;;;;;12.40;11.10;;;;;;;;;;5083450;28;20063;-61
2023/05/07 04:24:32;;;;;;;14.52;11.05;;;;;;;;;;5083930;28;20143;-60
2023/05/07 04:26:59;;;;;;;14.00;11.82;;;;;;;;;;5081392;28;20053;-58
2023/05/07 04:29:25;;;;;;;14.93;12.05;;;;;;;;;;5082926;28;20052;-59
2023/05/07 04:31:52;;;;;;;15.18;12.02;;;;;;;;;;5082455;28;20052;-60
2023/05/07 04:34:18;;;;;;;12.77;11.40;;;;;;;;;;5081154;28;20078;-61
2023/05/07 04:36:46;;;;;;;14.65;12.40;;;;;;;;;;5083206;28;20052;-59
2023/05/07 04:39:12;;;;;;;11.93;10.80;;;;;;;;;;5082288;28;20045;-60
2023/05/07 04:41:38;;;;;;;15.30;12.02;;;;;;;;;;5082595;28;20119;-60
2023/05/07 04:44:06;;;;;;;15.77;12.63;;;;;;;;;;5083509;28;20086;-60
2023/05/07 04:46:32;;;;;;;14.23;12.13;;;;;;;;;;5083845;28;20592;-60
2023/05/07 04:48:59;;;;;;;14.70;12.93;;;;;;;;;;5077557;28;20140;-57
2023/05/07 04:51:25;;;;;;;16.83;11.90;;;;;;;;;;5083864;28;20114;-61
2023/05/07 04:53:51;;;;;;;13.93;10.88;;;;;;;;;;5083345;28;20537;-61
2023/05/07 04:56:18;;;;;;;16.00;11.48;;;;;;;;;;5084143;28;20660;-59
2023/05/07 04:58:44;;;;;;;15.15;11.43;;;;;;;;;;5083604;28;20064;-60
2023/05/07 05:01:10;;;;;;;12.73;11.30;;;;;;;;;;5081151;28;20057;-61
2023/05/07 05:03:37;;;;;;;16.13;11.30;;;;;;;;;;5083306;28;20496;-61
2023/05/07 05:06:04;;;;;;;13.98;11.18;;;;;;;;;;5080528;28;20103;-61
2023/05/07 05:08:31;;;;;;;14.82;11.85;;;;;;;;;;5073358;28;20060;-59
2023/05/07 05:10:57;;;;;;;16.50;11.57;;;;;;;;;;5079381;28;20418;-60
2023/05/07 05:13:24;;;;;;;13.82;11.65;;;;;;;;;;5082388;28;20048;-61
2023/05/07 05:15:50;;;;;;;15.48;12.07;;;;;;;;;;5082162;28;20060;-61
2023/05/07 05:18:17;;;;;;;13.80;12.38;;;;;;;;;;5082141;28;20059;-61
2023/05/07 05:20:43;;;;;;;15.32;11.98;;;;;;;;;;5081643;28;20102;-60
2023/05/07 05:23:09;;;;;;;14.75;12.50;;;;;;;;;;5083867;28;20507;-60
2023/05/07 05:25:37;;;;;;;14.15;12.40;;;;;;;;;;5082962;28;20048;-61
2023/05/07 05:28:03;;;;;;;19.90;12.32;;;;;;;;;;5075104;28;20499;-61
2023/05/07 05:30:29;;;;;;;14.75;12.27;;;;;;;;;;5081092;28;20052;-59
2023/05/07 05:32:56;;;;;;;13.93;11.90;;;;;;;;;;5079376;28;20485;-60
2023/05/07 05:35:22;;;;;;;16.83;12.73;;;;;;;;;;5080104;28;20053;-61
2023/05/07 05:37:49;;;;;;;15.55;12.50;;;;;;;;;;5082020;28;20568;-59
2023/05/07 05:40:15;;;;;;;14.05;12.65;;;;;;;;;;5080959;28;20057;-60
2023/05/07 05:42:41;;;;;;;14.07;12.30;;;;;;;;;;5083899;28;20138;-60
2023/05/07 05:45:08;;;;;;;15.18;13.57;;;;;;;;;;5083501;28;20049;-57
2023/05/07 05:47:34;;;;;;;15.38;12.95;;;;;;;;;;5079949;28;20059;-61
2023/05/07 05:50:01;;;;;;;15.45;12.95;;;;;;;;;;5063213;28;20584;-60
2023/05/07 05:52:27;;;;;;;15.20;13.60;;;;;;;;;;5079431;28;20064;-60
2023/05/07 05:54:54;;;;;;;15.82;14.13;;;;;;;;;;5080792;28;20102;-59
2023/05/07 05:57:21;;;;;;;16.23;14.52;;;;;;;;;;5079234;28;21895;-60
2023/05/07 05:59:47;;;;;;;17.25;13.52;;;;;;;;;;5082675;28;20079;-61
2023/05/07 06:02:14;;;;;;;16.90;14.00;;;;;;;;;;5082572;28;20119;-59
2023/05/07 06:04:41;;;;;;;18.42;14.00;;;;;;;;;;5077544;28;20048;-61
2023/05/07 06:07:07;;;;;;;17.05;13.85;;;;;;;;;;5076528;28;20048;-60
2023/05/07 06:09:34;;;;;;;16.98;14.75;;;;;;;;;;5082628;28;20052;-61
2023/05/07 06:12:00;;;;;;;16.42;14.18;;;;;;;;;;5083185;28;20072;-60
2023/05/07 06:14:27;;;;;;;17.77;14.55;;;;;;;;;;5083267;28;20550;-61
2023/05/07 06:16:54;;;;;;;18.25;15.13;;;;;;;;;;5081079;28;20060;-61
2023/05/07 06:19:23;;;;;;;17.88;14.52;;;;;;;;;;5082389;28;20451;-60
2023/05/07 06:21:50;;;;;;;17.92;15.43;;;;;;;;;;5082144;28;20052;-59
2023/05/07 06:24:16;;;;;;;17.67;15.43;;;;;;;;;;5085239;28;20169;-59
2023/05/07 06:26:42;;;;;;;20.20;15.55;;;;;;;;;;5082617;28;20056;-61
2023/05/07 06:29:09;;;;;;;21.75;16.38;;;;;;;;;;5082270;28;20056;-60
2023/05/07 06:31:35;;;;;;;20.20;16.38;;;;;;;;;;5080509;28;20053;-61
2023/05/07 06:34:02;;;;;;;18.23;15.63;;;;;;;;;;5090000;28;20057;-61
2023/05/07 06:36:29;;;;;;;18.40;15.25;;;;;;;;;;5083279;28;20056;-60
2023/05/07 06:38:55;;;;;;;19.13;16.35;;;;;;;;;;5075079;28;20049;-58
2023/05/07 06:41:22;;;;;;;19.92;15.93;;;;;;;;;;5082750;28;20444;-59
2023/05/07 06:43:48;;;;;;;18.58;15.98;;;;;;;;;;5082567;28;20056;-61
2023/05/07 06:46:15;;;;;;;17.88;15.00;;;;;;;;;;5081577;28;20055;-57
2023/05/07 06:48:41;;;;;;;22.88;17.45;;;;;;;;;;5095183;28;20507;-60
2023/05/07 06:51:08;;;;;;;18.13;15.75;;;;;;;;;;5083801;28;20044;-59
2023/05/07 06:53:35;;;;;;;18.55;16.05;;;;;;;;;;5069177;28;20089;-60
2023/05/07 06:56:01;;;;;;;20.48;16.48;;;;;;;;;;5075239;28;20216;-59
2023/05/07 06:58:28;;;;;;;17.05;15.10;;;;;;;;;;5080241;28;20577;-59
2023/05/07 07:00:54;;;;;;;20.38;17.30;;;;;;;;;;5083377;28;20136;-60
2023/05/07 07:03:21;;;;;;;19.23;16.15;;;;;;;;;;5078697;28;20139;-60
2023/05/07 07:05:47;;;;;;;20.83;15.57;;;;;;;;;;5082080;28;20052;-60
2023/05/07 07:08:14;;;;;;;19.40;17.33;;;;;;;;;;5082175;28;20060;-61
2023/05/07 07:10:40;;;;;;;19.95;16.40;;;;;;;;;;5079866;28;20155;-61
2023/05/07 07:13:07;;;;;;;19.05;16.17;;;;;;;;;;5072030;28;20064;-59
2023/05/07 07:15:33;;;;;;;24.88;18.10;;;;;;;;;;5061536;28;20128;-57
2023/05/07 07:18:00;;;;;;;17.77;15.32;;;;;;;;;;5062872;28;20057;-60
2023/05/07 07:20:26;;;;;;;19.58;16.65;;;;;;;;;;5066033;28;20490;-59
2023/05/07 07:22:52;;;;;;;20.75;17.13;;;;;;;;;;5078129;28;20114;-61
2023/05/07 07:25:19;;;;;;;18.67;16.50;;;;;;;;;;5067379;28;20060;-61
2023/05/07 07:27:45;;;;;;;20.42;16.85;;;;;;;;;;5095501;28;20477;-59
2023/05/07 07:30:11;;;;;;;22.33;16.95;;;;;;;;;;5080396;28;20427;-60
2023/05/07 07:32:38;;;;;;;19.50;17.40;;;;;;;;;;5083872;28;20068;-59
2023/05/07 07:35:05;;;;;;;20.63;16.70;;;;;;;;;;5083664;28;20105;-61
2023/05/07 07:37:31;;;;;;;22.90;17.42;;;;;;;;;;5084091;28;20049;-60
2023/05/07 07:39:58;;;;;;;19.40;17.00;;;;;;;;;;5080379;28;20053;-59
2023/05/07 07:42:25;;;;;;;22.25;17.30;;;;;;;;;;5082782;28;20063;-60
2023/05/07 07:44:51;;;;;;;17.75;15.90;;;;;;;;;;5081422;28;20504;-60
2023/05/07 07:47:18;;;;;;;18.65;16.38;;;;;;;;;;5087324;28;20066;-60
2023/05/07 07:49:44;;;;;;;19.77;15.70;;;;;;;;;;5083424;28;20473;-60
2023/05/07 07:52:11;;;;;;;21.15;18.13;;;;;;;;;;5085684;28;20052;-60
2023/05/07 07:54:37;;;;;;;20.77;18.52;;;;;;;;;;5085007;28;20053;-62
2023/05/07 07:57:04;;;;;;;23.83;17.83;;;;;;;;;;5083224;28;20510;-60
2023/05/07 07:59:30;;;;;;;20.63;17.05;;;;;;;;;;5064379;28;20049;-59
2023/05/07 08:01:57;;;;;;;20.02;17.25;;;;;;;;;;5065422;28;20130;-61
2023/05/07 08:04:24;;;;;;;24.70;18.45;;;;;;;;;;5069677;28;20068;-61
2023/05/07 08:06:50;;;;;;;21.63;17.83;;;;;;;;;;5084704;28;20060;-60
2023/05/07 08:09:17;;;;;;;21.83;18.63;;;;;;;;;;5084883;28;20052;-60
2023/05/07 08:11:43;;;;;;;22.45;18.10;;;;;;;;;;5084656;28;20114;-60
2023/05/07 08:14:09;;;;;;;20.67;16.50;;;;;;;;;;5083149;28;20063;-60
2023/05/07 08:16:36;;;;;;;19.63;17.52;;;;;;;;;;5084254;28;20102;-61
2023/05/07 08:19:02;;;;;;;17.77;15.55;;;;;;;;;;5084555;28;20110;-60
2023/05/07 08:21:30;;;;;;;20.63;18.45;;;;;;;;;;5085149;28;20052;-60
2023/05/07 08:23:59;;;;;;;19.88;17.88;;;;;;;;;;5085194;28;20055;-59
2023/05/07 08:26:25;;;;;;;21.33;19.08;;;;;;;;;;5084843;28;20053;-60
2023/05/07 08:28:52;;;;;;;22.30;18.58;;;;;;;;;;5082775;28;20443;-59
2023/05/07 08:31:18;;;;;;;20.38;18.25;;;;;;;;;;5083568;28;20048;-60
2023/05/07 08:33:45;;;;;;;21.27;18.15;;;;;;;;;;5085153;28;20525;-61
2023/05/07 08:36:11;;;;;;;22.40;18.50;;;;;;;;;;5084689;28;20585;-61
2023/05/07 08:38:40;;;;;;;20.50;17.95;;;;;;;;;;5084065;28;20059;-60
2023/05/07 08:41:09;;;;;;;21.30;18.52;;;;;;;;;;5084792;28;20542;-60
2023/05/07 08:43:36;;;;;;;20.70;18.50;;;;;;;;;;5062416;28;20332;-60
2023/05/07 08:46:02;;;;;;;19.50;17.48;;;;;;;;;;5079213;28;20059;-61
2023/05/07 08:48:29;;;;;;;21.67;19.35;;;;;;;;;;5082356;28;20056;-58
2023/05/07 08:50:57;;;;;;;21.10;18.83;;;;;;;;;;5085109;28;20057;-60
2023/05/07 08:53:24;;;;;;;23.23;20.02;;;;;;;;;;5084391;28;20512;-60
2023/05/07 08:55:50;;;;;;;23.40;19.52;;;;;;;;;;5084165;28;20057;-59
2023/05/07 08:58:17;;;;;;;24.42;19.38;;;;;;;;;;5083995;28;20052;-60
2023/05/07 09:00:43;;;;;;;23.27;19.45;;;;;;;;;;5082835;28;20056;-61
2023/05/07 09:03:12;;;;;;;22.08;19.02;;;;;;;;;;5083652;28;20114;-59
2023/05/07 09:05:39;;;;;;;26.77;20.52;;;;;;;;;;5084098;28;20088;-60
2023/05/07 09:08:08;;;;;;;23.33;20.73;;;;;;;;;;5084689;28;20056;-57
2023/05/07 09:10:34;;;;;;;28.70;21.58;;;;;;;;;;5082192;28;20049;-60
2023/05/07 09:13:02;;;;;;;23.70;20.27;;;;;;;;;;5072357;28;20794;-60
2023/05/07 09:15:28;;;;;;;22.27;19.75;;;;;;;;;;5096524;27;20056;-60
2023/05/07 09:18:00;;;;;;;22.83;19.52;;;;;;;;;;5084387;28;20107;-60
2023/05/07 09:20:27;;;;;;;22.92;20.38;;;;;;;;;;5074297;28;20057;-59
2023/05/07 09:22:55;;;;;;;24.50;19.38;;;;;;;;;;5083529;28;20053;-60
2023/05/07 09:25:32;;;;;;;23.40;20.42;;;;;;;;;;5082057;28;20139;-60
2023/05/07 09:27:59;;;;;;;23.98;19.95;;;;;;;;;;5082654;28;20052;-59
2023/05/07 09:30:30;;;;;;;25.85;21.50;;;;;;;;;;5078489;28;20087;-60
2023/05/07 09:32:57;;;;;;;23.48;19.15;;;;;;;;;;5084139;28;20110;-60
2023/05/07 09:35:27;;;;;;;23.40;20.13;;;;;;;;;;5082899;28;20060;-61
2023/05/07 09:37:54;;;;;;;22.42;18.98;;;;;;;;;;5080288;28;20052;-59
2023/05/07 09:40:22;;;;;;;21.60;19.10;;;;;;;;;;5082231;28;20076;-60
2023/05/07 09:42:49;;;;;;;23.55;19.10;;;;;;;;;;5081637;28;20258;-60
2023/05/07 09:45:16;;;;;;;22.42;17.25;;;;;;;;;;5082306;28;20071;-60
2023/05/07 09:47:44;;;;;;;19.30;16.92;;;;;;;;;;5077041;28;20368;-59
2023/05/07 09:50:12;;;;;;;18.20;15.77;;;;;;;;;;5083612;28;20056;-60
2023/05/07 09:52:38;;;;;;;17.40;15.52;;;;;;;;;;5083523;28;20509;-59
2023/05/07 09:55:05;;;;;;;17.63;15.65;;;;;;;;;;5073623;28;20061;-59
2023/05/07 09:57:32;;;;;;;20.85;17.05;;;;;;;;;;5075702;28;20060;-59
2023/05/07 09:59:59;;;;;;;18.45;15.60;;;;;;;;;;5083059;28;20111;-57
2023/05/07 10:02:27;;;;;;;16.70;13.75;;;;;;;;;;5081530;28;20063;-60
2023/05/07 10:04:54;;;;;;;15.23;13.30;;;;;;;;;;5082865;28;20517;-59
2023/05/07 10:07:21;;;;;;;14.68;13.07;;;;;;;;;;5082209;28;20056;-60
2023/05/07 10:09:47;;;;;;;17.75;14.40;;;;;;;;;;5082551;28;20676;-58
2023/05/07 10:12:14;;;;;;;17.20;13.52;;;;;;;;;;5083045;28;20064;-60
2023/05/07 10:14:41;;;;;;;11.43;10.23;;;;;;;;;;5071705;28;20048;-60
2023/05/07 10:17:09;;;;;;;14.20;10.18;;;;;;;;;;5081400;28;20083;-60
2023/05/07 10:19:36;;;;;;;10.90;9.73;;;;;;;;;;5080880;28;20063;-59
2023/05/07 10:22:04;;;;;;;11.88;9.35;;;;;;;;;;5062946;28;20085;-60
2023/05/07 10:24:33;;;;;;;13.25;10.23;;;;;;;;;;5061720;28;20049;-60
2023/05/07 10:27:01;;;;;;;11.23;10.10;;;;;;;;;;5076516;28;20110;-60
2023/05/07 10:29:37;;;;;;;12.93;9.85;;;;;;;;;;5080731;28;20053;-58
2023/05/07 10:32:19;;;;;;;15.57;9.90;;;;;;;;;;5080463;28;20058;-59
2023/05/07 10:34:48;;;;;;;13.75;10.20;;;;;;;;;;5082567;28;20095;-59
2023/05/07 10:37:15;;;;;;;15.32;10.70;;;;;;;;;;5082269;28;20543;-60
2023/05/07 10:39:41;;;;;;;13.60;10.25;;;;;;;;;;5081807;28;20056;-60
2023/05/07 10:42:08;;;;;;;11.85;10.45;;;;;;;;;;5080173;28;20214;-58
2023/05/07 10:44:35;;;;;;;16.25;11.52;;;;;;;;;;5082835;28;20044;-60
2023/05/07 10:47:09;;;;;;;15.35;11.30;;;;;;;;;;5082020;28;20059;-60
2023/05/07 10:49:42;;;;;;;12.63;11.30;;;;;;;;;;5067607;28;20580;-60
2023/05/07 10:52:14;;;;;;;15.80;11.82;;;;;;;;;;5082992;28;20052;-60
2023/05/07 10:54:41;;;;;;;13.73;11.65;;;;;;;;;;5069856;28;20049;-60
2023/05/07 10:57:26;;;;;;;17.00;12.95;;;;;;;;;;5078887;28;20084;-62
2023/05/07 10:59:53;;;;;;;14.13;11.95;;;;;;;;;;5084409;28;20566;-60
2023/05/07 11:02:19;;;;;;;13.30;11.48;;;;;;;;;;5084416;28;20056;-60
2023/05/07 11:05:06;;;;;;;13.23;11.45;;;;;;;;;;5082877;28;20052;-61
2023/05/07 11:07:32;;;;;;;12.85;11.48;;;;;;;;;;5080382;28;20191;-60
2023/05/07 11:10:04;;;;;;;15.70;11.55;;;;;;;;;;5083157;28;20527;-59
2023/05/07 11:12:43;;;;;;;15.20;11.32;;;;;;;;;;5085026;28;20147;-60
2023/05/07 11:15:10;;;;;;;13.93;11.27;;;;;;;;;;5069727;28;20053;-61
2023/05/07 11:17:56;;;;;;;11.95;10.75;;;;;;;;;;5079827;28;20167;-59
2023/05/07 11:20:43;;;;;;;14.15;12.05;;;;;;;;;;5078637;28;20060;-61
2023/05/07 11:23:30;;;;;;;14.52;11.75;;;;;;;;;;5081740;28;20057;-59
2023/05/07 11:26:00;;;;;;;15.10;11.45;;;;;;;;;;5072534;28;20153;-60
2023/05/07 11:28:30;;;;;;;13.35;11.60;;;;;;;;;;5093232;28;20053;-61
2023/05/07 11:30:57;;;;;;;15.55;11.70;;;;;;;;;;5086322;28;20067;-61
2023/05/07 11:33:25;;;;;;;13.60;12.25;;;;;;;;;;5085625;28;20080;-60
2023/05/07 11:35:53;;;;;;;15.93;12.10;;;;;;;;;;5084288;28;20498;-61
2023/05/07 11:38:19;;;;;;;14.48;12.98;;;;;;;;;;5113727;27;20053;-59
2023/05/07 11:40:50;;;;;;;13.85;11.88;;;;;;;;;;5085081;28;20131;-60
2023/05/07 11:43:17;;;;;;;13.70;12.20;;;;;;;;;;5083307;28;20446;-61
2023/05/07 11:45:44;;;;;;;14.57;12.20;;;;;;;;;;5082694;28;20131;-61
2023/05/07 11:48:11;;;;;;;14.85;11.95;;;;;;;;;;5085341;28;20052;-60
2023/05/07 11:50:50;;;;;;;13.80;12.30;;;;;;;;;;5084848;28;20053;-60
2023/05/07 11:53:17;;;;;;;14.65;11.65;;;;;;;;;;5085531;28;20049;-60
2023/05/07 11:55:44;;;;;;;13.98;12.50;;;;;;;;;;5082157;28;20063;-60
2023/05/07 11:58:12;;;;;;;14.73;12.93;;;;;;;;;;5077882;28;20049;-61
2023/05/07 12:00:38;;;;;;;13.32;11.82;;;;;;;;;;5081359;28;20494;-60
2023/05/07 12:03:05;;;;;;;14.15;12.18;;;;;;;;;;5080764;28;20057;-60
2023/05/07 12:05:31;;;;;;;13.55;12.15;;;;;;;;;;5084322;28;20135;-62
2023/05/07 12:07:58;;;;;;;14.45;12.75;;;;;;;;;;5073286;28;20614;-60
2023/05/07 12:10:25;;;;;;;14.20;12.75;;;;;;;;;;5080961;28;20052;-60
2023/05/07 12:12:51;;;;;;;15.10;13.52;;;;;;;;;;5080763;28;20052;-61
2023/05/07 12:15:22;;;;;;;15.70;13.65;;;;;;;;;;5083839;28;20620;-59
2023/05/07 12:17:49;;;;;;;13.98;12.57;;;;;;;;;;5081660;28;20056;-61
2023/05/07 12:20:15;;;;;;;16.20;13.88;;;;;;;;;;5085029;28;20134;-61
2023/05/07 12:22:42;;;;;;;14.05;12.63;;;;;;;;;;5082901;28;20131;-61
2023/05/07 12:25:08;;;;;;;14.68;12.18;;;;;;;;;;5077753;28;20136;-61
2023/05/07 12:27:38;;;;;;;16.00;12.70;;;;;;;;;;5068547;28;20059;-61
2023/05/07 12:30:05;;;;;;;18.50;13.15;;;;;;;;;;5074292;28;20064;-60
2023/05/07 12:32:36;;;;;;;14.60;12.00;;;;;;;;;;5075393;28;20055;-61
2023/05/07 12:35:02;;;;;;;13.85;12.52;;;;;;;;;;5064678;28;20139;-62
2023/05/07 12:37:29;;;;;;;17.58;13.15;;;;;;;;;;5069867;28;20053;-61
2023/05/07 12:40:07;;;;;;;16.38;11.90;;;;;;;;;;5083589;28;20064;-61
2023/05/07 12:42:38;;;;;;;16.13;12.40;;;;;;;;;;5084174;28;20097;-60
2023/05/07 12:45:15;;;;;;;14.98;13.38;;;;;;;;;;5084429;28;20557;-61
2023/05/07 12:47:44;;;;;;;12.85;10.90;;;;;;;;;;5084485;28;20110;-61
2023/05/07 12:50:11;;;;;;;14.50;11.05;;;;;;;;;;5081103;28;20048;-58
2023/05/07 12:52:37;;;;;;;11.40;10.13;;;;;;;;;;5084272;28;20052;-61
2023/05/07 12:55:07;;;;;;;12.95;10.55;;;;;;;;;;5084258;28;20502;-63
2023/05/07 12:57:38;;;;;;;9.73;8.63;;;;;;;;;;5084698;28;20517;-61
2023/05/07 13:00:05;;;;;;;12.23;10.30;;;;;;;;;;5084693;28;20553;-60
2023/05/07 13:02:32;;;;;;;12.82;9.73;;;;;;;;;;5080530;28;20060;-61
2023/05/07 13:04:59;;;;;;;11.50;10.05;;;;;;;;;;5083458;28;20053;-60
2023/05/07 13:07:25;;;;;;;15.10;10.43;;;;;;;;;;5074538;28;20144;-61
2023/05/07 13:09:54;;;;;;;13.13;10.80;;;;;;;;;;5084681;28;20052;-60
2023/05/07 13:12:21;;;;;;;11.48;10.27;;;;;;;;;;5076049;28;20473;-60
2023/05/07 13:14:47;;;;;;;11.80;9.77;;;;;;;;;;5063582;28;20498;-60
2023/05/07 13:17:13;;;;;;;14.38;10.07;;;;;;;;;;5064182;28;20057;-60
2023/05/07 13:19:40;;;;;;;12.60;10.48;;;;;;;;;;5080463;28;20052;-61
2023/05/07 13:22:06;;;;;;;12.88;10.15;;;;;;;;;;5082254;28;20060;-60
2023/05/07 13:24:32;;;;;;;10.00;9.05;;;;;;;;;;5069196;28;20087;-61
2023/05/07 13:26:59;;;;;;;7.85;7.05;;;;;;;;;;5055759;28;20479;-59
2023/05/07 13:29:29;;;;;;;12.35;8.75;;;;;;;;;;5073611;28;20071;-59
2023/05/07 13:31:56;;;;;;;10.88;8.40;;;;;;;;;;5078021;28;20056;-59
2023/05/07 13:34:22;;;;;;;10.48;8.05;;;;;;;;;;5084868;28;20671;-61
2023/05/07 13:36:49;;;;;;;10.00;8.93;;;;;;;;;;5075824;28;20059;-60
2023/05/07 13:39:15;;;;;;;10.70;9.63;;;;;;;;;;5078689;28;20053;-59
2023/05/07 13:41:42;;;;;;;10.60;9.07;;;;;;;;;;5084025;28;20135;-61
2023/05/07 13:44:08;;;;;;;10.20;9.20;;;;;;;;;;5080643;28;20052;-59
2023/05/07 13:46:34;;;;;;;10.52;9.25;;;;;;;;;;5072865;28;20206;-60
2023/05/07 13:49:01;;;;;;;11.00;8.68;;;;;;;;;;5079048;28;20057;-59
2023/05/07 13:51:28;;;;;;;11.23;9.20;;;;;;;;;;5081553;28;20080;-58
2023/05/07 13:53:54;;;;;;;13.95;9.35;;;;;;;;;;5079009;28;20517;-60
2023/05/07 13:56:21;;;;;;;10.48;9.48;;;;;;;;;;5081512;28;20056;-58
2023/05/07 13:58:47;;;;;;;13.15;9.68;;;;;;;;;;5072739;28;20590;-60
2023/05/07 14:01:24;;;;;;;13.82;10.25;;;;;;;;;;5074046;28;20102;-60
2023/05/07 14:03:51;;;;;;;12.30;11.00;;;;;;;;;;5078519;28;20123;-60
2023/05/07 14:06:17;;;;;;;12.40;11.10;;;;;;;;;;5077092;28;20619;-60
2023/05/07 14:08:44;;;;;;;14.15;11.13;;;;;;;;;;5079284;28;20056;-59
2023/05/07 14:11:10;;;;;;;13.68;11.57;;;;;;;;;;5079000;28;20541;-59
2023/05/07 14:13:36;;;;;;;12.45;11.15;;;;;;;;;;5079022;28;20139;-60
2023/05/07 14:16:04;;;;;;;12.07;10.88;;;;;;;;;;5076823;28;20059;-59
2023/05/07 14:18:30;;;;;;;13.52;10.80;;;;;;;;;;5073996;28;20064;-60
2023/05/07 14:20:56;;;;;;;13.48;11.40;;;;;;;;;;5078098;28;20059;-59
2023/05/07 14:23:26;;;;;;;12.52;10.80;;;;;;;;;;5086278;28;20057;-60